TAF KEED
KEED 081731Z 0818/0918 33008KT P6SM FEW080 FM082100 24008KT P6SM FEW250 FM091700 17009KT P6SM FEW060 BKN150=
METAR KEED
WC KEED
WS KEED
WV KEED